Time;durP1;ratioP1;P1;durP2;ratioP2;P2;SDS_P1;SDS_P2;PMS_P1;PMS_P2;Temp;Humidity;BMP_temperature;BMP_pressure;BME280_temperature;BME280_humidity;BME280_pressure;Samples;Min_cycle;Max_cycle;Signal;HPM_P1;HPM_P2
2022/06/29 00:00:10;;;;;;;7.70;1.42;;;;;;;;;;3357631;42;20084;-63
2022/06/29 00:02:36;;;;;;;5.33;1.60;;;;;;;;;;3357919;42;20088;-59
2022/06/29 00:05:06;;;;;;;7.03;1.98;;;;;;;;;;3357833;42;20095;-61
2022/06/29 00:07:32;;;;;;;5.22;1.52;;;;;;;;;;3357791;42;20139;-58
2022/06/29 00:09:57;;;;;;;6.95;1.85;;;;;;;;;;3357778;42;20092;-65
2022/06/29 00:12:23;;;;;;;7.57;2.00;;;;;;;;;;3357726;42;20115;-60
2022/06/29 00:14:49;;;;;;;8.82;2.30;;;;;;;;;;3357709;42;20114;-61
2022/06/29 00:17:15;;;;;;;15.95;3.80;;;;;;;;;;3357682;42;20114;-60
2022/06/29 00:19:41;;;;;;;14.40;4.30;;;;;;;;;;3359101;42;20092;-61
2022/06/29 00:22:08;;;;;;;21.40;5.67;;;;;;;;;;3360399;42;20131;-62
2022/06/29 00:24:34;;;;;;;14.35;4.35;;;;;;;;;;3357644;42;20096;-59
2022/06/29 00:27:00;;;;;;;10.05;3.35;;;;;;;;;;3357546;42;20657;-60
2022/06/29 00:29:26;;;;;;;12.63;4.10;;;;;;;;;;3357660;42;20127;-60
2022/06/29 00:31:52;;;;;;;17.13;4.50;;;;;;;;;;3358863;42;20092;-59
2022/06/29 00:34:18;;;;;;;17.17;5.73;;;;;;;;;;3357287;42;20569;-60
2022/06/29 00:36:44;;;;;;;19.67;6.32;;;;;;;;;;3357262;42;20642;-59
2022/06/29 00:39:10;;;;;;;17.10;5.25;;;;;;;;;;3357484;42;20626;-60
2022/06/29 00:41:43;;;;;;;15.63;4.85;;;;;;;;;;3357531;42;20602;-60
2022/06/29 00:44:13;;;;;;;19.30;6.27;;;;;;;;;;3356265;42;20091;-63
2022/06/29 00:47:00;;;;;;;20.55;6.35;;;;;;;;;;3357586;42;20102;-63
2022/06/29 00:49:27;;;;;;;12.43;3.70;;;;;;;;;;3357545;42;20544;-63
2022/06/29 00:52:08;;;;;;;7.88;2.47;;;;;;;;;;3356412;42;20163;-65
2022/06/29 00:54:50;;;;;;;10.70;2.95;;;;;;;;;;3357589;42;20080;-58
2022/06/29 00:57:24;;;;;;;9.13;2.20;;;;;;;;;;3357770;42;20109;-61
2022/06/29 00:59:51;;;;;;;9.90;2.08;;;;;;;;;;3357330;42;20559;-59
2022/06/29 01:02:19;;;;;;;5.55;1.80;;;;;;;;;;3357544;42;20171;-62
2022/06/29 01:04:46;;;;;;;5.30;1.45;;;;;;;;;;3357336;42;20095;-63
2022/06/29 01:07:16;;;;;;;4.40;1.40;;;;;;;;;;3356212;42;20144;-58
2022/06/29 01:09:43;;;;;;;5.20;1.47;;;;;;;;;;3357653;42;20106;-63
2022/06/29 01:12:09;;;;;;;5.28;1.70;;;;;;;;;;3358023;42;20081;-60
2022/06/29 01:14:35;;;;;;;5.50;1.58;;;;;;;;;;3357388;42;20099;-59
2022/06/29 01:17:01;;;;;;;5.93;1.52;;;;;;;;;;3357169;42;20156;-58
2022/06/29 01:19:27;;;;;;;5.82;1.70;;;;;;;;;;3356924;42;20502;-60
2022/06/29 01:21:53;;;;;;;4.80;1.50;;;;;;;;;;3357387;42;20559;-60
2022/06/29 01:24:20;;;;;;;4.85;1.55;;;;;;;;;;3356138;42;20091;-59
2022/06/29 01:26:45;;;;;;;4.85;1.70;;;;;;;;;;3356265;42;20118;-62
2022/06/29 01:29:11;;;;;;;6.18;1.60;;;;;;;;;;3357211;42;20569;-62
2022/06/29 01:31:37;;;;;;;7.33;1.83;;;;;;;;;;3357221;42;20110;-60
2022/06/29 01:34:04;;;;;;;7.00;1.80;;;;;;;;;;3357253;42;20177;-60
2022/06/29 01:36:30;;;;;;;7.25;2.03;;;;;;;;;;3359147;42;20143;-61
2022/06/29 01:38:56;;;;;;;5.63;1.70;;;;;;;;;;3359116;42;20564;-60
2022/06/29 01:41:21;;;;;;;7.27;1.60;;;;;;;;;;3358148;42;20084;-60
2022/06/29 01:43:47;;;;;;;7.65;2.25;;;;;;;;;;3359298;42;20104;-60
2022/06/29 01:46:13;;;;;;;8.13;2.03;;;;;;;;;;3359384;42;20088;-61
2022/06/29 01:48:39;;;;;;;6.37;1.87;;;;;;;;;;3358946;42;20104;-63
2022/06/29 01:51:05;;;;;;;9.98;2.05;;;;;;;;;;3359850;42;20139;-60
2022/06/29 01:53:31;;;;;;;6.40;1.83;;;;;;;;;;3359525;42;20527;-63
2022/06/29 01:55:57;;;;;;;7.57;2.20;;;;;;;;;;3360054;42;20089;-60
2022/06/29 01:58:23;;;;;;;15.73;4.20;;;;;;;;;;3358202;42;20092;-65
2022/06/29 02:00:49;;;;;;;11.25;4.15;;;;;;;;;;3359985;42;20088;-61
2022/06/29 02:03:15;;;;;;;17.13;5.75;;;;;;;;;;3359783;42;20084;-61
2022/06/29 02:05:41;;;;;;;12.52;4.40;;;;;;;;;;3359923;42;20569;-64
2022/06/29 02:08:07;;;;;;;14.47;4.70;;;;;;;;;;3358526;42;20551;-62
2022/06/29 02:10:33;;;;;;;12.50;4.43;;;;;;;;;;3360747;42;20248;-60
2022/06/29 02:13:00;;;;;;;9.80;2.95;;;;;;;;;;3360409;42;20103;-60
2022/06/29 02:15:26;;;;;;;9.27;2.60;;;;;;;;;;3360766;42;20096;-61
2022/06/29 02:17:52;;;;;;;10.27;3.23;;;;;;;;;;3360274;42;20193;-59
2022/06/29 02:20:18;;;;;;;6.80;1.70;;;;;;;;;;3360884;42;20292;-63
2022/06/29 02:22:44;;;;;;;5.68;1.65;;;;;;;;;;3358585;42;20099;-59
2022/06/29 02:25:10;;;;;;;6.60;1.42;;;;;;;;;;3360381;42;20139;-62
2022/06/29 02:27:40;;;;;;;5.63;1.42;;;;;;;;;;3358783;42;20159;-67
2022/06/29 02:30:08;;;;;;;6.57;1.88;;;;;;;;;;3359146;42;20088;-60
2022/06/29 02:35:19;;;;;;;8.23;1.65;;;;;;;;;;3360148;42;20100;-60
2022/06/29 02:37:45;;;;;;;5.93;1.38;;;;;;;;;;3359944;42;20155;-63
2022/06/29 02:40:11;;;;;;;6.93;1.50;;;;;;;;;;3359817;42;20084;-59
2022/06/29 02:42:37;;;;;;;7.22;1.63;;;;;;;;;;3356578;42;20088;-60
2022/06/29 02:45:03;;;;;;;5.53;1.40;;;;;;;;;;3359206;42;20231;-60
2022/06/29 02:47:29;;;;;;;4.90;1.20;;;;;;;;;;3359418;42;20644;-58
2022/06/29 02:49:55;;;;;;;4.88;1.20;;;;;;;;;;3359099;42;20675;-60
2022/06/29 02:52:21;;;;;;;4.37;1.30;;;;;;;;;;3359053;42;20088;-59
2022/06/29 02:54:47;;;;;;;4.75;1.20;;;;;;;;;;3359014;42;20084;-61
2022/06/29 02:57:13;;;;;;;8.20;1.25;;;;;;;;;;3357949;42;20095;-61
2022/06/29 02:59:39;;;;;;;7.45;1.30;;;;;;;;;;3358740;42;20214;-64
2022/06/29 03:02:05;;;;;;;4.15;1.25;;;;;;;;;;3358950;42;20644;-60
2022/06/29 03:04:34;;;;;;;5.43;1.40;;;;;;;;;;3358033;42;20104;-60
2022/06/29 03:07:00;;;;;;;5.32;1.40;;;;;;;;;;3357177;42;20103;-62
2022/06/29 03:09:26;;;;;;;5.28;1.20;;;;;;;;;;3349812;42;20159;-60
2022/06/29 03:11:53;;;;;;;10.50;1.38;;;;;;;;;;3358711;42;20080;-60
2022/06/29 03:14:18;;;;;;;6.27;1.27;;;;;;;;;;3357051;42;20628;-63
2022/06/29 03:16:44;;;;;;;9.13;1.25;;;;;;;;;;3358459;42;20567;-60
2022/06/29 03:19:10;;;;;;;4.10;1.20;;;;;;;;;;3358413;42;20081;-60
2022/06/29 03:21:36;;;;;;;3.22;1.00;;;;;;;;;;3358529;42;20177;-63
2022/06/29 03:24:03;;;;;;;6.70;1.17;;;;;;;;;;3358615;42;20096;-61
2022/06/29 03:26:30;;;;;;;3.80;1.10;;;;;;;;;;3358294;42;20151;-61
2022/06/29 03:28:56;;;;;;;4.70;1.08;;;;;;;;;;3356767;42;20115;-62
2022/06/29 03:31:22;;;;;;;4.65;1.00;;;;;;;;;;3358337;42;20103;-61
2022/06/29 03:33:48;;;;;;;5.70;1.10;;;;;;;;;;3352313;42;20098;-60
2022/06/29 03:36:14;;;;;;;3.67;1.00;;;;;;;;;;3360488;42;20144;-63
2022/06/29 03:38:40;;;;;;;5.10;1.17;;;;;;;;;;3358000;42;20103;-60
2022/06/29 03:41:06;;;;;;;7.90;2.67;;;;;;;;;;3358394;42;20118;-63
2022/06/29 03:43:32;;;;;;;6.60;1.98;;;;;;;;;;3357580;42;20088;-60
2022/06/29 03:45:58;;;;;;;4.97;1.42;;;;;;;;;;3357890;42;20203;-59
2022/06/29 03:48:24;;;;;;;5.00;1.10;;;;;;;;;;3359154;42;20099;-62
2022/06/29 03:50:50;;;;;;;5.00;1.15;;;;;;;;;;3357925;42;20080;-64
2022/06/29 03:53:16;;;;;;;5.20;1.00;;;;;;;;;;3358213;42;20140;-60
2022/06/29 03:55:42;;;;;;;4.22;1.00;;;;;;;;;;3355040;42;20118;-57
2022/06/29 03:58:08;;;;;;;6.00;1.20;;;;;;;;;;3356112;42;20657;-62
2022/06/29 04:00:34;;;;;;;3.25;1.00;;;;;;;;;;3356464;42;20092;-58
2022/06/29 04:03:00;;;;;;;3.63;0.90;;;;;;;;;;3356675;42;20088;-57
2022/06/29 04:05:26;;;;;;;4.00;1.05;;;;;;;;;;3356498;42;20144;-57
2022/06/29 04:07:52;;;;;;;4.27;1.30;;;;;;;;;;3357949;42;20218;-57
2022/06/29 04:10:18;;;;;;;3.83;1.00;;;;;;;;;;3358081;42;20109;-61
2022/06/29 04:12:44;;;;;;;3.55;1.05;;;;;;;;;;3357819;42;20895;-61
2022/06/29 04:15:10;;;;;;;4.75;1.15;;;;;;;;;;3357591;42;20088;-58
2022/06/29 04:17:36;;;;;;;4.67;1.40;;;;;;;;;;3357920;42;20107;-56
2022/06/29 04:20:05;;;;;;;4.00;1.10;;;;;;;;;;3357800;42;20095;-54
2022/06/29 04:22:31;;;;;;;3.78;1.10;;;;;;;;;;3357829;42;20547;-58
2022/06/29 04:24:57;;;;;;;4.82;1.30;;;;;;;;;;3357898;42;20166;-57
2022/06/29 04:27:23;;;;;;;4.60;1.30;;;;;;;;;;3357914;42;20119;-58
2022/06/29 04:29:49;;;;;;;4.18;1.20;;;;;;;;;;3357634;42;20088;-58
2022/06/29 04:32:15;;;;;;;6.28;1.23;;;;;;;;;;3357699;42;20098;-59
2022/06/29 04:34:41;;;;;;;6.13;1.80;;;;;;;;;;3355968;42;20688;-59
2022/06/29 04:37:07;;;;;;;7.00;1.40;;;;;;;;;;3355857;42;20140;-59
2022/06/29 04:39:33;;;;;;;6.80;1.40;;;;;;;;;;3359020;42;20148;-58
2022/06/29 04:41:59;;;;;;;4.75;1.55;;;;;;;;;;3361731;42;20596;-59
2022/06/29 04:44:25;;;;;;;5.63;1.40;;;;;;;;;;3361017;42;20617;-60
2022/06/29 04:46:53;;;;;;;4.63;1.30;;;;;;;;;;3359776;42;20602;-55
2022/06/29 04:49:19;;;;;;;4.97;1.50;;;;;;;;;;3360137;42;20091;-59
2022/06/29 04:51:45;;;;;;;4.25;1.30;;;;;;;;;;3359703;42;20150;-57
2022/06/29 04:54:11;;;;;;;7.47;1.50;;;;;;;;;;3361185;42;20084;-60
2022/06/29 04:56:37;;;;;;;4.15;1.02;;;;;;;;;;3360284;42;20088;-58
2022/06/29 04:59:03;;;;;;;5.20;1.10;;;;;;;;;;3360396;42;20187;-60
2022/06/29 05:01:30;;;;;;;4.28;1.20;;;;;;;;;;3360810;42;20088;-60
2022/06/29 05:03:56;;;;;;;4.40;1.13;;;;;;;;;;3360301;42;20088;-61
2022/06/29 05:06:22;;;;;;;4.63;1.30;;;;;;;;;;3358398;42;20160;-60
2022/06/29 05:08:49;;;;;;;4.13;1.10;;;;;;;;;;3357159;42;20140;-64
2022/06/29 05:11:15;;;;;;;3.67;1.00;;;;;;;;;;3344202;42;20154;-62
2022/06/29 05:13:42;;;;;;;5.57;1.30;;;;;;;;;;3355511;42;20084;-60
2022/06/29 05:16:08;;;;;;;4.85;1.25;;;;;;;;;;3355546;42;20088;-59
2022/06/29 05:18:35;;;;;;;4.30;1.20;;;;;;;;;;3356989;42;20092;-60
2022/06/29 05:21:01;;;;;;;6.80;1.40;;;;;;;;;;3357333;42;20162;-60
2022/06/29 05:23:29;;;;;;;4.32;1.20;;;;;;;;;;3355800;42;20166;-60
2022/06/29 05:25:55;;;;;;;5.72;1.20;;;;;;;;;;3356680;42;20155;-64
2022/06/29 05:28:21;;;;;;;4.90;1.30;;;;;;;;;;3355809;42;20862;-61
2022/06/29 05:30:47;;;;;;;7.45;1.30;;;;;;;;;;3355612;42;20092;-60
2022/06/29 05:33:13;;;;;;;4.93;1.10;;;;;;;;;;3357261;42;20080;-61
2022/06/29 05:35:39;;;;;;;5.30;1.10;;;;;;;;;;3354080;42;20088;-62
2022/06/29 05:38:05;;;;;;;6.78;1.27;;;;;;;;;;3355106;42;20080;-64
2022/06/29 05:40:31;;;;;;;5.22;1.30;;;;;;;;;;3355270;42;20080;-67
2022/06/29 05:42:57;;;;;;;4.10;1.30;;;;;;;;;;3355861;42;20106;-61
2022/06/29 05:45:25;;;;;;;7.00;1.70;;;;;;;;;;3356103;42;20155;-61
2022/06/29 05:47:52;;;;;;;5.70;1.20;;;;;;;;;;3355725;42;20084;-61
2022/06/29 05:50:19;;;;;;;3.60;1.02;;;;;;;;;;3357372;42;20100;-60
2022/06/29 05:52:45;;;;;;;5.50;1.10;;;;;;;;;;3356517;42;20200;-62
2022/06/29 05:55:12;;;;;;;4.22;1.20;;;;;;;;;;3356103;42;20091;-62
2022/06/29 05:57:37;;;;;;;5.80;1.35;;;;;;;;;;3357124;42;20096;-63
2022/06/29 06:00:04;;;;;;;4.63;1.27;;;;;;;;;;3356922;42;20091;-62
2022/06/29 06:02:30;;;;;;;4.78;1.33;;;;;;;;;;3356916;42;20080;-60
2022/06/29 06:04:56;;;;;;;6.97;2.37;;;;;;;;;;3355599;42;20505;-61
2022/06/29 06:07:22;;;;;;;4.60;1.40;;;;;;;;;;3355560;42;20625;-61
2022/06/29 06:09:48;;;;;;;4.57;1.27;;;;;;;;;;3356617;42;20178;-65
2022/06/29 06:12:14;;;;;;;4.40;1.00;;;;;;;;;;3356801;42;20077;-60
2022/06/29 06:14:40;;;;;;;5.80;1.30;;;;;;;;;;3356017;42;20080;-62
2022/06/29 06:17:06;;;;;;;5.35;1.42;;;;;;;;;;3355501;42;20103;-61
2022/06/29 06:19:32;;;;;;;6.32;1.40;;;;;;;;;;3357057;42;20084;-60
2022/06/29 06:21:58;;;;;;;5.23;1.27;;;;;;;;;;3358172;42;20183;-61
2022/06/29 06:24:24;;;;;;;4.32;1.30;;;;;;;;;;3358174;42;20158;-61
2022/06/29 06:26:50;;;;;;;5.95;2.22;;;;;;;;;;3358389;42;20143;-60
2022/06/29 06:29:16;;;;;;;4.25;1.35;;;;;;;;;;3358494;42;20158;-62
2022/06/29 06:31:42;;;;;;;7.37;1.50;;;;;;;;;;3358389;42;20095;-61
2022/06/29 06:34:08;;;;;;;6.75;1.80;;;;;;;;;;3357847;42;20114;-63
2022/06/29 06:36:34;;;;;;;4.30;1.40;;;;;;;;;;3360790;42;20098;-62
2022/06/29 06:39:00;;;;;;;5.67;1.80;;;;;;;;;;3363021;42;20088;-60
2022/06/29 06:41:26;;;;;;;4.40;1.30;;;;;;;;;;3358469;42;20830;-62
2022/06/29 06:43:53;;;;;;;6.03;1.52;;;;;;;;;;3356842;42;20159;-63
2022/06/29 06:46:19;;;;;;;6.22;1.40;;;;;;;;;;3358312;42;20096;-62
2022/06/29 06:48:46;;;;;;;5.13;1.60;;;;;;;;;;3358050;42;20144;-62
2022/06/29 06:51:12;;;;;;;9.50;2.00;;;;;;;;;;3358215;42;20104;-60
2022/06/29 06:53:38;;;;;;;7.20;1.83;;;;;;;;;;3358718;42;20136;-63
2022/06/29 06:56:05;;;;;;;8.73;2.10;;;;;;;;;;3362425;42;20091;-61
2022/06/29 06:58:30;;;;;;;6.18;1.90;;;;;;;;;;3360219;42;20084;-60
2022/06/29 07:00:56;;;;;;;6.05;1.85;;;;;;;;;;3358292;42;20167;-59
2022/06/29 07:03:23;;;;;;;8.03;1.80;;;;;;;;;;3358417;42;20091;-60
2022/06/29 07:05:49;;;;;;;6.25;1.90;;;;;;;;;;3357971;42;20161;-60
2022/06/29 07:08:14;;;;;;;5.50;1.73;;;;;;;;;;3357732;42;20139;-63
2022/06/29 07:10:40;;;;;;;8.55;2.20;;;;;;;;;;3358133;42;20135;-60
2022/06/29 07:13:06;;;;;;;6.13;1.90;;;;;;;;;;3358064;42;20158;-59
2022/06/29 07:15:32;;;;;;;5.93;1.80;;;;;;;;;;3358089;42;20507;-63
2022/06/29 07:17:58;;;;;;;6.03;2.00;;;;;;;;;;3358164;42;20622;-61
2022/06/29 07:20:28;;;;;;;6.72;2.05;;;;;;;;;;3358163;42;20080;-58
2022/06/29 07:22:54;;;;;;;5.68;2.25;;;;;;;;;;3357669;42;20151;-59
2022/06/29 07:25:20;;;;;;;5.63;2.27;;;;;;;;;;3358110;42;20156;-60
2022/06/29 07:27:46;;;;;;;5.97;2.55;;;;;;;;;;3357653;42;20108;-62
2022/06/29 07:30:12;;;;;;;6.82;2.38;;;;;;;;;;3358149;42;20072;-58
2022/06/29 07:32:38;;;;;;;9.10;2.55;;;;;;;;;;3357212;42;20084;-59
2022/06/29 07:35:04;;;;;;;6.00;2.40;;;;;;;;;;3358192;42;20140;-60
2022/06/29 07:37:30;;;;;;;5.78;2.30;;;;;;;;;;3357610;42;20502;-59
2022/06/29 07:39:56;;;;;;;8.38;2.60;;;;;;;;;;3357393;42;20583;-60
2022/06/29 07:42:22;;;;;;;6.60;2.00;;;;;;;;;;3357640;42;20140;-60
2022/06/29 07:44:48;;;;;;;7.43;2.60;;;;;;;;;;3357438;42;20166;-57
2022/06/29 07:47:14;;;;;;;6.43;2.35;;;;;;;;;;3357589;42;20096;-60
2022/06/29 07:49:40;;;;;;;7.18;2.88;;;;;;;;;;3357721;42;20594;-61
2022/06/29 07:52:06;;;;;;;6.67;2.20;;;;;;;;;;3357497;42;20119;-59
2022/06/29 07:54:32;;;;;;;10.25;3.22;;;;;;;;;;3358860;42;20072;-59
2022/06/29 07:56:58;;;;;;;8.27;2.47;;;;;;;;;;3356847;42;20123;-57
2022/06/29 07:59:24;;;;;;;6.75;2.25;;;;;;;;;;3357048;42;20513;-58
2022/06/29 08:01:50;;;;;;;6.30;2.57;;;;;;;;;;3357042;42;20187;-61
2022/06/29 08:04:16;;;;;;;7.57;2.10;;;;;;;;;;3356022;42;20083;-60
2022/06/29 08:06:42;;;;;;;6.68;2.60;;;;;;;;;;3361273;42;20096;-59
2022/06/29 08:09:08;;;;;;;9.95;2.78;;;;;;;;;;3359593;42;20096;-57
2022/06/29 08:11:34;;;;;;;8.57;2.30;;;;;;;;;;3361419;42;20199;-63
2022/06/29 08:14:00;;;;;;;7.22;2.33;;;;;;;;;;3362044;42;20276;-59
2022/06/29 08:16:25;;;;;;;6.43;2.22;;;;;;;;;;3363412;42;20110;-63
2022/06/29 08:18:51;;;;;;;6.38;2.47;;;;;;;;;;3361379;42;20182;-60
2022/06/29 08:21:17;;;;;;;5.53;2.23;;;;;;;;;;3358989;42;20097;-58
2022/06/29 08:23:43;;;;;;;6.43;2.53;;;;;;;;;;3359594;42;20577;-59
2022/06/29 08:26:09;;;;;;;9.55;2.63;;;;;;;;;;3358889;42;20132;-59
2022/06/29 08:28:35;;;;;;;7.00;2.77;;;;;;;;;;3358619;42;20486;-59
2022/06/29 08:31:01;;;;;;;8.27;2.90;;;;;;;;;;3359813;42;20272;-60
2022/06/29 08:33:27;;;;;;;6.78;2.67;;;;;;;;;;3360166;42;20092;-60
2022/06/29 08:35:53;;;;;;;7.43;2.83;;;;;;;;;;3359420;42;20147;-59
2022/06/29 08:38:19;;;;;;;7.93;3.10;;;;;;;;;;3357218;42;20088;-59
2022/06/29 08:40:46;;;;;;;7.33;3.00;;;;;;;;;;3357203;42;20187;-61
2022/06/29 08:43:13;;;;;;;9.18;2.95;;;;;;;;;;3354419;42;20081;-59
2022/06/29 08:45:42;;;;;;;8.82;2.53;;;;;;;;;;3358823;42;20148;-59
2022/06/29 08:48:08;;;;;;;7.93;3.05;;;;;;;;;;3357544;42;20100;-60
2022/06/29 08:50:34;;;;;;;6.40;2.90;;;;;;;;;;3357381;42;20486;-59
2022/06/29 08:53:01;;;;;;;7.47;3.07;;;;;;;;;;3355702;42;20136;-58
2022/06/29 08:55:27;;;;;;;7.68;3.08;;;;;;;;;;3348557;42;20139;-62
2022/06/29 08:57:53;;;;;;;7.75;3.47;;;;;;;;;;3355201;42;20106;-59
2022/06/29 09:00:20;;;;;;;7.47;3.60;;;;;;;;;;3355451;42;20555;-60
2022/06/29 09:02:46;;;;;;;8.50;3.47;;;;;;;;;;3351297;42;20092;-64
2022/06/29 09:05:12;;;;;;;7.60;3.17;;;;;;;;;;3354939;42;20088;-60
2022/06/29 09:07:38;;;;;;;6.85;2.95;;;;;;;;;;3356073;42;20159;-62
2022/06/29 09:10:07;;;;;;;5.95;2.85;;;;;;;;;;3357236;42;20091;-61
2022/06/29 09:12:33;;;;;;;9.05;3.17;;;;;;;;;;3354337;42;20087;-59
2022/06/29 09:15:00;;;;;;;6.23;2.83;;;;;;;;;;3355402;42;20096;-62
2022/06/29 09:17:26;;;;;;;8.93;3.58;;;;;;;;;;3357217;42;20095;-61
2022/06/29 09:19:56;;;;;;;8.73;3.47;;;;;;;;;;3355626;42;20539;-59
2022/06/29 09:22:22;;;;;;;7.88;3.10;;;;;;;;;;3355669;42;20108;-60
2022/06/29 09:24:49;;;;;;;7.73;3.00;;;;;;;;;;3357224;42;20522;-60
2022/06/29 09:27:15;;;;;;;9.20;2.83;;;;;;;;;;3355927;42;20300;-61
2022/06/29 09:29:42;;;;;;;7.57;2.90;;;;;;;;;;3355453;42;20100;-61
2022/06/29 09:32:15;;;;;;;8.73;3.08;;;;;;;;;;3357345;42;20582;-63
2022/06/29 09:34:46;;;;;;;7.40;2.88;;;;;;;;;;3355781;42;20111;-63
2022/06/29 09:37:19;;;;;;;6.15;2.97;;;;;;;;;;3358167;42;20171;-63
2022/06/29 09:39:46;;;;;;;8.03;3.07;;;;;;;;;;3355667;42;20130;-63
2022/06/29 09:42:17;;;;;;;7.43;2.67;;;;;;;;;;3355948;42;20096;-59
2022/06/29 09:44:44;;;;;;;7.47;2.80;;;;;;;;;;3355536;42;20602;-64
2022/06/29 09:47:20;;;;;;;7.95;2.70;;;;;;;;;;3353835;42;20099;-57
2022/06/29 09:49:49;;;;;;;9.57;2.95;;;;;;;;;;3352921;42;20572;-63
2022/06/29 09:52:15;;;;;;;8.73;2.70;;;;;;;;;;3353111;42;20084;-62
2022/06/29 09:54:54;;;;;;;6.82;2.60;;;;;;;;;;3354334;42;20090;-60
2022/06/29 09:57:22;;;;;;;5.90;2.60;;;;;;;;;;3354587;42;20132;-62
2022/06/29 10:02:45;;;;;;;7.82;2.50;;;;;;;;;;3348577;42;20162;-59
2022/06/29 10:05:15;;;;;;;7.57;2.60;;;;;;;;;;3360048;42;20565;-60
2022/06/29 10:07:42;;;;;;;7.50;2.78;;;;;;;;;;3358664;42;20139;-61
2022/06/29 10:10:13;;;;;;;7.35;2.38;;;;;;;;;;3354792;42;20276;-61
2022/06/29 10:15:57;;;;;;;7.55;2.60;;;;;;;;;;3355669;42;20593;-62
2022/06/29 10:18:33;;;;;;;6.53;2.60;;;;;;;;;;3354265;42;20119;-64
2022/06/29 10:20:59;;;;;;;8.07;2.72;;;;;;;;;;3354998;42;21005;-64
2022/06/29 10:23:50;;;;;;;10.27;2.45;;;;;;;;;;3353935;42;20107;-62
2022/06/29 10:26:37;;;;;;;5.60;2.40;;;;;;;;;;3354903;42;20103;-58
2022/06/29 10:29:06;;;;;;;7.23;2.27;;;;;;;;;;3351197;42;20187;-60
2022/06/29 10:31:51;;;;;;;9.25;2.45;;;;;;;;;;3357098;42;20539;-59
2022/06/29 10:34:32;;;;;;;8.05;2.33;;;;;;;;;;3352686;42;20640;-59
2022/06/29 10:37:05;;;;;;;6.35;2.25;;;;;;;;;;3355702;42;20650;-60
2022/06/29 10:39:49;;;;;;;6.55;2.10;;;;;;;;;;3354678;42;20084;-59
2022/06/29 10:45:33;;;;;;;5.40;1.90;;;;;;;;;;3356093;42;20122;-63
2022/06/29 10:48:01;;;;;;;9.80;2.55;;;;;;;;;;3356172;42;20127;-60
2022/06/29 10:50:28;;;;;;;6.55;2.08;;;;;;;;;;3358183;42;20115;-60
2022/06/29 10:52:55;;;;;;;6.88;1.90;;;;;;;;;;3357775;42;20194;-62
2022/06/29 10:55:22;;;;;;;7.67;2.23;;;;;;;;;;3352240;42;20550;-60
2022/06/29 10:57:47;;;;;;;6.35;2.08;;;;;;;;;;3362565;42;20084;-61
2022/06/29 11:00:20;;;;;;;6.53;2.05;;;;;;;;;;3357918;42;20178;-59
2022/06/29 11:02:46;;;;;;;5.80;2.08;;;;;;;;;;3357996;42;20178;-59
2022/06/29 11:05:13;;;;;;;9.70;2.10;;;;;;;;;;3356711;42;20100;-61
2022/06/29 11:13:23;;;;;;;5.68;1.70;;;;;;;;;;3356461;42;20096;-59
2022/06/29 11:15:53;;;;;;;7.80;1.95;;;;;;;;;;3356495;42;20502;-58
2022/06/29 11:18:32;;;;;;;6.38;1.60;;;;;;;;;;3357883;42;20124;-57
2022/06/29 11:21:04;;;;;;;5.60;1.80;;;;;;;;;;3357899;42;20092;-58
2022/06/29 11:23:32;;;;;;;5.70;2.00;;;;;;;;;;3357761;42;20593;-60
2022/06/29 11:25:58;;;;;;;7.07;2.20;;;;;;;;;;3357532;42;20154;-59
2022/06/29 11:28:31;;;;;;;4.90;1.55;;;;;;;;;;3357245;42;20157;-56
2022/06/29 11:31:04;;;;;;;6.45;1.60;;;;;;;;;;3355434;42;20114;-58
2022/06/29 11:33:34;;;;;;;5.10;1.67;;;;;;;;;;3359165;42;20096;-60
2022/06/29 11:36:06;;;;;;;6.15;1.92;;;;;;;;;;3357536;42;20123;-57
2022/06/29 11:38:34;;;;;;;8.18;1.85;;;;;;;;;;3353972;42;20549;-60
2022/06/29 11:41:09;;;;;;;5.80;1.80;;;;;;;;;;3357137;42;20151;-61
2022/06/29 11:43:35;;;;;;;5.50;1.80;;;;;;;;;;3355154;42;20104;-61
2022/06/29 11:46:01;;;;;;;6.37;1.90;;;;;;;;;;3357610;42;20084;-60
2022/06/29 11:48:28;;;;;;;6.18;1.65;;;;;;;;;;3357242;42;20096;-61
2022/06/29 11:50:54;;;;;;;6.63;2.05;;;;;;;;;;3355616;42;20081;-61
2022/06/29 11:53:43;;;;;;;6.35;1.80;;;;;;;;;;3357284;42;20108;-61
2022/06/29 11:56:10;;;;;;;6.40;1.67;;;;;;;;;;3356514;42;20633;-62
2022/06/29 11:58:37;;;;;;;5.13;1.60;;;;;;;;;;3357568;42;20106;-60
2022/06/29 12:01:07;;;;;;;6.32;1.67;;;;;;;;;;3359380;42;20242;-60
2022/06/29 12:03:33;;;;;;;5.95;1.88;;;;;;;;;;3360535;42;20088;-60
2022/06/29 12:05:59;;;;;;;4.57;1.43;;;;;;;;;;3356479;42;20091;-60
2022/06/29 12:08:27;;;;;;;6.90;1.40;;;;;;;;;;3354732;42;20160;-64
2022/06/29 12:10:53;;;;;;;6.28;1.83;;;;;;;;;;3356274;42;20096;-61
2022/06/29 12:13:19;;;;;;;7.53;2.03;;;;;;;;;;3356435;42;20154;-61
2022/06/29 12:15:45;;;;;;;5.07;1.70;;;;;;;;;;3359412;42;20099;-61
2022/06/29 12:18:11;;;;;;;7.27;1.70;;;;;;;;;;3357368;42;20092;-59
2022/06/29 12:20:37;;;;;;;6.30;1.38;;;;;;;;;;3357291;42;20107;-61
2022/06/29 12:23:03;;;;;;;5.43;1.50;;;;;;;;;;3351861;42;20096;-60
2022/06/29 12:25:29;;;;;;;5.10;1.83;;;;;;;;;;3355581;42;20103;-58
2022/06/29 12:27:55;;;;;;;7.70;2.40;;;;;;;;;;3356834;42;20104;-60
2022/06/29 12:30:21;;;;;;;5.85;1.50;;;;;;;;;;3356232;42;20143;-59
2022/06/29 12:32:47;;;;;;;5.28;1.60;;;;;;;;;;3357204;42;20099;-60
2022/06/29 12:35:13;;;;;;;8.43;1.60;;;;;;;;;;3357425;42;20826;-61
2022/06/29 12:37:43;;;;;;;4.40;1.30;;;;;;;;;;3357106;42;20092;-61
2022/06/29 12:40:11;;;;;;;4.95;1.60;;;;;;;;;;3356841;42;20112;-61
2022/06/29 12:42:38;;;;;;;5.20;1.42;;;;;;;;;;3348119;42;20151;-62
2022/06/29 12:45:04;;;;;;;8.60;1.50;;;;;;;;;;3356830;42;20092;-61
2022/06/29 12:47:31;;;;;;;6.22;1.60;;;;;;;;;;3354709;42;20080;-61
2022/06/29 12:49:57;;;;;;;6.67;1.80;;;;;;;;;;3356652;42;20100;-60
2022/06/29 12:52:23;;;;;;;5.72;1.48;;;;;;;;;;3357094;42;20171;-63
2022/06/29 12:54:49;;;;;;;6.57;1.70;;;;;;;;;;3357016;42;20165;-60
2022/06/29 12:57:18;;;;;;;4.05;1.25;;;;;;;;;;3357346;42;20135;-59
2022/06/29 12:59:45;;;;;;;7.15;1.50;;;;;;;;;;3355411;42;20131;-58
2022/06/29 13:02:12;;;;;;;5.33;1.40;;;;;;;;;;3357334;42;20614;-60
2022/06/29 13:04:38;;;;;;;5.68;1.60;;;;;;;;;;3357247;42;20107;-62
2022/06/29 13:07:04;;;;;;;6.00;1.45;;;;;;;;;;3357092;42;20104;-65
2022/06/29 13:09:30;;;;;;;6.03;1.45;;;;;;;;;;3355581;42;20104;-57
2022/06/29 13:11:56;;;;;;;5.97;1.40;;;;;;;;;;3356776;42;20084;-62
2022/06/29 13:14:22;;;;;;;13.27;5.80;;;;;;;;;;3357499;42;20582;-61
2022/06/29 13:16:48;;;;;;;7.63;2.60;;;;;;;;;;3356162;42;20088;-61
2022/06/29 13:19:15;;;;;;;7.43;1.77;;;;;;;;;;3359517;42;20092;-58
2022/06/29 13:21:41;;;;;;;6.10;1.70;;;;;;;;;;3357342;42;20120;-60
2022/06/29 13:24:07;;;;;;;4.47;1.40;;;;;;;;;;3355788;42;20088;-60
2022/06/29 13:26:35;;;;;;;6.50;1.40;;;;;;;;;;3356617;42;20084;-59
2022/06/29 13:29:02;;;;;;;5.03;1.70;;;;;;;;;;3355302;42;20590;-61
2022/06/29 13:31:28;;;;;;;6.05;1.50;;;;;;;;;;3353911;42;20096;-60
2022/06/29 13:33:54;;;;;;;5.25;1.70;;;;;;;;;;3357854;42;20100;-59
2022/06/29 13:36:20;;;;;;;6.10;1.67;;;;;;;;;;3358544;42;20092;-61
2022/06/29 13:38:46;;;;;;;5.07;1.60;;;;;;;;;;3356176;42;20840;-61
2022/06/29 13:41:15;;;;;;;7.38;1.67;;;;;;;;;;3357265;42;20076;-60
2022/06/29 13:43:42;;;;;;;5.32;1.50;;;;;;;;;;3358305;42;20096;-62
2022/06/29 13:46:08;;;;;;;6.03;1.50;;;;;;;;;;3358725;42;20092;-61
2022/06/29 13:48:34;;;;;;;6.73;1.53;;;;;;;;;;3358700;42;20206;-62
2022/06/29 13:51:00;;;;;;;5.10;1.50;;;;;;;;;;3358834;42;20084;-61
2022/06/29 13:53:26;;;;;;;7.30;1.60;;;;;;;;;;3359529;42;20114;-61
2022/06/29 13:55:52;;;;;;;6.38;1.40;;;;;;;;;;3358642;42;20093;-65
2022/06/29 13:58:18;;;;;;;5.47;1.60;;;;;;;;;;3358393;42;20604;-61
2022/06/29 14:00:44;;;;;;;5.90;1.70;;;;;;;;;;3358196;42;20096;-63
2022/06/29 14:03:10;;;;;;;5.35;1.50;;;;;;;;;;3356545;42;20154;-60
2022/06/29 14:05:36;;;;;;;5.95;1.55;;;;;;;;;;3356417;42;20123;-59
2022/06/29 14:08:02;;;;;;;5.43;1.48;;;;;;;;;;3358764;42;20104;-60
2022/06/29 14:10:28;;;;;;;4.47;1.43;;;;;;;;;;3358070;42;20104;-59
2022/06/29 14:12:54;;;;;;;6.40;1.70;;;;;;;;;;3356684;42;20096;-61
2022/06/29 14:15:21;;;;;;;8.48;1.70;;;;;;;;;;3356787;42;20479;-60
2022/06/29 14:17:47;;;;;;;4.93;1.30;;;;;;;;;;3358187;42;20511;-57
2022/06/29 14:20:13;;;;;;;4.95;1.30;;;;;;;;;;3356887;42;20099;-62
2022/06/29 14:22:39;;;;;;;5.63;1.40;;;;;;;;;;3358320;42;20096;-64
2022/06/29 14:25:07;;;;;;;5.45;1.10;;;;;;;;;;3349899;42;20498;-62
2022/06/29 14:27:34;;;;;;;5.32;1.48;;;;;;;;;;3358163;42;20089;-62
2022/06/29 14:30:00;;;;;;;6.55;1.63;;;;;;;;;;3358371;42;20163;-60
2022/06/29 14:32:26;;;;;;;7.37;1.50;;;;;;;;;;3358510;42;20096;-60
2022/06/29 14:34:52;;;;;;;6.10;1.60;;;;;;;;;;3358595;42;20140;-59
2022/06/29 14:37:18;;;;;;;7.32;1.48;;;;;;;;;;3358265;42;20633;-60
2022/06/29 14:39:44;;;;;;;7.65;1.70;;;;;;;;;;3358638;42;20650;-59
2022/06/29 14:42:11;;;;;;;4.93;1.63;;;;;;;;;;3358081;42;20127;-60
2022/06/29 14:44:37;;;;;;;4.65;1.48;;;;;;;;;;3358537;42;20100;-64
2022/06/29 14:47:03;;;;;;;5.18;1.55;;;;;;;;;;3358261;42;20096;-61
2022/06/29 14:49:29;;;;;;;4.97;1.67;;;;;;;;;;3358502;42;20471;-60
2022/06/29 14:51:55;;;;;;;7.57;1.80;;;;;;;;;;3358289;42;20558;-59
2022/06/29 14:54:21;;;;;;;6.43;1.60;;;;;;;;;;3357244;42;20095;-61
2022/06/29 14:56:47;;;;;;;4.82;1.40;;;;;;;;;;3358442;42;20657;-59
2022/06/29 14:59:12;;;;;;;6.20;1.60;;;;;;;;;;3358466;42;20076;-60